createdAt,value
2018-03-27T00:00:59.053Z,40.43
2018-03-27T00:03:26.549Z,37.97
2018-03-27T00:05:54.055Z,38.13
2018-03-27T00:08:21.593Z,40.50
2018-03-27T00:10:49.089Z,36.50
2018-03-27T00:13:16.746Z,35.53
2018-03-27T00:15:44.386Z,38.27
2018-03-27T00:18:12.039Z,33.80
2018-03-27T00:20:39.544Z,38.03
2018-03-27T00:23:07.341Z,32.93
2018-03-27T00:25:34.845Z,34.97
2018-03-27T00:28:08.219Z,31.70
2018-03-27T00:30:47.562Z,31.47
2018-03-27T00:33:26.713Z,34.23
2018-03-27T00:36:06.077Z,29.17
2018-03-27T00:38:45.757Z,31.87
2018-03-27T00:41:38.139Z,31.73
2018-03-27T00:44:05.790Z,31.13
2018-03-27T00:46:33.081Z,35.60
2018-03-27T00:49:00.558Z,33.17
2018-03-27T00:51:27.805Z,34.83
2018-03-27T00:53:55.358Z,30.13
2018-03-27T00:56:23.121Z,29.40
2018-03-27T00:58:50.622Z,31.23
2018-03-27T01:01:18.182Z,31.50
2018-03-27T01:03:45.837Z,31.63
2018-03-27T01:06:13.330Z,33.70
2018-03-27T01:08:40.948Z,32.20
2018-03-27T01:11:08.650Z,32.80
2018-03-27T01:13:36.219Z,32.87
2018-03-27T01:16:03.764Z,32.03
2018-03-27T01:18:31.416Z,28.80
2018-03-27T01:20:59.219Z,33.17
2018-03-27T01:23:26.873Z,34.40
2018-03-27T01:25:54.568Z,31.13
2018-03-27T01:28:22.061Z,30.83
2018-03-27T01:30:49.564Z,28.27
2018-03-27T01:33:17.643Z,30.57
2018-03-27T01:35:45.532Z,28.33
2018-03-27T01:38:13.185Z,26.63
2018-03-27T01:40:40.838Z,33.10
2018-03-27T01:43:08.330Z,29.27
2018-03-27T01:45:35.825Z,28.83
2018-03-27T01:48:03.456Z,27.83
2018-03-27T01:50:31.256Z,28.00
2018-03-27T01:52:58.749Z,32.50
2018-03-27T01:55:26.258Z,28.47
2018-03-27T01:57:53.757Z,33.27
2018-03-27T02:00:21.253Z,29.13
2018-03-27T02:02:48.978Z,30.10
2018-03-27T02:05:16.705Z,30.10
2018-03-27T02:07:44.631Z,32.27
2018-03-27T02:10:12.125Z,30.17
2018-03-27T02:12:45.296Z,35.63
2018-03-27T02:15:18.850Z,33.40
2018-03-27T02:17:52.109Z,29.70
2018-03-27T02:20:25.361Z,34.83
2018-03-27T02:22:56.901Z,30.97
2018-03-27T02:25:24.750Z,30.63
2018-03-27T02:27:52.454Z,31.07
2018-03-27T02:30:20.107Z,31.97
2018-03-27T02:32:47.780Z,31.27
2018-03-27T02:35:15.409Z,29.20
2018-03-27T02:37:43.442Z,32.73
2018-03-27T02:40:11.470Z,30.57
2018-03-27T02:42:39.158Z,31.43
2018-03-27T02:45:06.653Z,32.40
2018-03-27T02:47:34.155Z,34.50
2018-03-27T02:50:01.647Z,30.07
2018-03-27T02:52:29.380Z,31.23
2018-03-27T02:54:56.984Z,30.50
2018-03-27T02:57:24.638Z,35.13
2018-03-27T02:59:52.128Z,35.03
2018-03-27T03:02:19.640Z,34.40
2018-03-27T03:04:47.130Z,36.63
2018-03-27T03:07:14.694Z,35.63
2018-03-27T03:09:42.952Z,35.30
2018-03-27T03:12:10.561Z,37.97
2018-03-27T03:14:38.041Z,33.27
2018-03-27T03:17:06.067Z,32.33
2018-03-27T03:19:33.914Z,40.03
2018-03-27T03:22:01.763Z,37.07
2018-03-27T03:24:29.265Z,36.03
2018-03-27T03:26:56.746Z,37.33
2018-03-27T03:29:24.377Z,46.40
2018-03-27T03:31:51.985Z,40.23
2018-03-27T03:34:19.640Z,48.67
2018-03-27T03:36:47.159Z,53.17
2018-03-27T03:39:14.663Z,47.97
2018-03-27T03:41:42.450Z,52.30
2018-03-27T03:44:10.107Z,55.60
2018-03-27T03:46:37.647Z,46.43
2018-03-27T03:49:05.134Z,47.33
2018-03-27T03:51:32.621Z,52.70
2018-03-27T03:54:00.278Z,52.20
2018-03-27T03:56:27.973Z,50.40
2018-03-27T03:58:55.581Z,54.53
2018-03-27T04:01:23.188Z,56.17
2018-03-27T04:03:50.906Z,55.77
2018-03-27T04:06:18.541Z,56.43
2018-03-27T04:08:46.070Z,55.70
2018-03-27T04:11:13.557Z,54.37
2018-03-27T04:13:41.199Z,58.40
2018-03-27T04:16:08.713Z,55.07
2018-03-27T04:18:36.483Z,51.70
2018-03-27T04:21:04.254Z,57.07
2018-03-27T04:23:32.117Z,54.73
2018-03-27T04:25:59.622Z,57.87
2018-03-27T04:28:27.230Z,59.27
2018-03-27T04:30:54.718Z,63.57
2018-03-27T04:33:22.205Z,65.30
2018-03-27T04:35:49.796Z,55.83
2018-03-27T04:38:17.301Z,61.93
2018-03-27T04:40:44.810Z,59.10
2018-03-27T04:43:12.306Z,57.07
2018-03-27T04:45:40.073Z,64.17
2018-03-27T04:48:07.558Z,61.07
2018-03-27T04:50:35.325Z,60.50
2018-03-27T04:53:02.818Z,67.40
2018-03-27T04:55:30.306Z,64.47
2018-03-27T04:57:57.799Z,56.07
2018-03-27T05:00:25.545Z,65.83
2018-03-27T05:02:53.062Z,62.57
2018-03-27T05:05:20.903Z,62.93
2018-03-27T05:07:48.554Z,62.17
2018-03-27T05:10:16.206Z,61.07
2018-03-27T05:12:43.859Z,60.63
2018-03-27T05:15:11.659Z,59.73
2018-03-27T05:17:39.757Z,59.30
2018-03-27T05:20:07.343Z,61.57
2018-03-27T05:22:35.017Z,62.87
2018-03-27T05:25:02.722Z,60.03
2018-03-27T05:27:30.324Z,57.67
2018-03-27T05:29:58.025Z,63.20
2018-03-27T05:32:25.530Z,65.10
2018-03-27T05:34:53.132Z,63.43
2018-03-27T05:37:20.741Z,58.60
2018-03-27T05:39:48.270Z,65.30
2018-03-27T05:42:15.758Z,61.33
2018-03-27T05:44:43.285Z,60.63
2018-03-27T05:47:11.010Z,70.37
2018-03-27T05:49:39.057Z,57.73
2018-03-27T05:52:06.550Z,60.97
2018-03-27T05:54:34.032Z,65.30
2018-03-27T05:57:01.831Z,62.20
2018-03-27T05:59:29.334Z,67.60
2018-03-27T06:01:56.933Z,63.07
2018-03-27T06:04:24.425Z,68.93
2018-03-27T06:06:51.941Z,59.47
2018-03-27T06:09:19.468Z,68.23
2018-03-27T06:11:46.978Z,65.27
2018-03-27T06:14:14.557Z,65.33
2018-03-27T06:16:42.086Z,61.60
2018-03-27T06:19:09.588Z,77.17
2018-03-27T06:21:37.442Z,62.57
2018-03-27T06:24:04.966Z,70.73
2018-03-27T06:26:32.694Z,62.53
2018-03-27T06:29:00.281Z,66.20
2018-03-27T06:31:27.982Z,68.33
2018-03-27T06:33:55.637Z,65.83
2018-03-27T06:36:23.245Z,62.60
2018-03-27T06:38:50.945Z,66.53
2018-03-27T06:41:18.438Z,64.47
2018-03-27T06:43:45.950Z,61.17
2018-03-27T06:46:13.661Z,63.97
2018-03-27T06:48:41.173Z,71.07
2018-03-27T06:51:08.968Z,67.47
2018-03-27T06:53:36.675Z,66.33
2018-03-27T06:56:04.470Z,68.57
2018-03-27T06:58:32.123Z,71.53
2018-03-27T07:00:59.779Z,65.00
2018-03-27T07:03:27.457Z,71.07
2018-03-27T07:05:54.969Z,72.03
2018-03-27T07:08:22.468Z,67.03
2018-03-27T07:10:49.971Z,81.10
2018-03-27T07:13:17.653Z,73.80
2018-03-27T07:15:45.149Z,69.30
2018-03-27T07:18:12.808Z,72.10
2018-03-27T07:20:40.318Z,68.43
2018-03-27T07:23:07.893Z,74.10
2018-03-27T07:25:35.574Z,70.77
2018-03-27T07:28:03.076Z,70.80
2018-03-27T07:30:30.887Z,66.33
2018-03-27T07:32:58.734Z,72.13
2018-03-27T07:35:26.535Z,73.97
2018-03-27T07:37:54.188Z,79.97
2018-03-27T07:40:21.888Z,71.90
2018-03-27T07:42:49.542Z,66.50
2018-03-27T07:45:17.194Z,74.30
2018-03-27T07:47:44.694Z,69.53
2018-03-27T07:50:12.191Z,73.90
2018-03-27T07:52:40.107Z,68.67
2018-03-27T07:55:07.765Z,79.67
2018-03-27T07:57:35.466Z,73.83
2018-03-27T08:00:03.119Z,74.37
2018-03-27T08:02:30.773Z,77.13
2018-03-27T08:04:58.274Z,74.13
2018-03-27T08:07:25.770Z,77.63
2018-03-27T08:09:53.289Z,70.70
2018-03-27T08:12:20.945Z,67.97
2018-03-27T08:14:48.433Z,70.20
2018-03-27T08:17:15.914Z,78.87
2018-03-27T08:19:43.411Z,73.90
2018-03-27T08:22:10.931Z,95.73
2018-03-27T08:24:38.865Z,72.70
2018-03-27T08:27:06.389Z,72.40
2018-03-27T08:29:33.942Z,68.97
2018-03-27T08:32:01.450Z,72.23
2018-03-27T08:34:29.013Z,72.83
2018-03-27T08:36:56.516Z,72.60
2018-03-27T08:39:24.033Z,66.07
2018-03-27T08:41:51.803Z,67.90
2018-03-27T08:44:19.456Z,68.50
2018-03-27T08:46:46.954Z,66.53
2018-03-27T08:49:14.450Z,59.70
2018-03-27T08:51:41.953Z,64.97
2018-03-27T08:54:09.716Z,70.30
2018-03-27T08:56:37.197Z,67.73
2018-03-27T08:59:04.834Z,61.70
2018-03-27T09:01:32.578Z,64.77
2018-03-27T09:04:00.068Z,61.37
2018-03-27T09:06:27.565Z,67.30
2018-03-27T09:08:55.256Z,65.70
2018-03-27T09:11:22.765Z,56.70
2018-03-27T09:13:50.558Z,62.30
2018-03-27T09:16:18.210Z,57.63
2018-03-27T09:18:45.840Z,58.40
2018-03-27T09:21:13.341Z,56.63
2018-03-27T09:23:40.885Z,52.90
2018-03-27T09:26:08.522Z,60.27
2018-03-27T09:28:36.073Z,59.33
2018-03-27T09:31:03.576Z,56.90
2018-03-27T09:33:31.376Z,60.47
2018-03-27T09:35:58.882Z,54.73
2018-03-27T09:38:26.371Z,55.40
2018-03-27T09:40:54.111Z,59.07
2018-03-27T09:43:21.634Z,58.47
2018-03-27T09:45:49.129Z,51.43
2018-03-27T09:48:16.633Z,56.70
2018-03-27T09:50:44.329Z,50.30
2018-03-27T09:53:12.030Z,55.57
2018-03-27T09:55:39.686Z,54.13
2018-03-27T09:58:07.340Z,62.03
2018-03-27T10:00:40.646Z,51.73
2018-03-27T10:03:08.303Z,53.23
2018-03-27T10:05:36.347Z,52.93
2018-03-27T10:08:03.855Z,51.60
2018-03-27T10:10:31.354Z,51.03
2018-03-27T10:12:59.164Z,45.60
2018-03-27T10:15:26.813Z,47.37
2018-03-27T10:17:54.416Z,48.67
2018-03-27T10:20:22.081Z,45.00
2018-03-27T10:22:49.770Z,49.23
2018-03-27T10:25:17.376Z,41.83
2018-03-27T10:27:45.226Z,41.73
2018-03-27T10:30:12.722Z,38.60
2018-03-27T10:32:40.535Z,37.20
2018-03-27T10:35:08.029Z,36.23
2018-03-27T10:37:35.594Z,36.83
2018-03-27T10:40:03.299Z,39.27
2018-03-27T10:42:31.000Z,38.77
2018-03-27T10:44:58.497Z,39.10
2018-03-27T10:47:26.110Z,40.87
2018-03-27T10:49:53.612Z,38.80
2018-03-27T10:52:21.370Z,37.23
2018-03-27T10:54:48.861Z,38.67
2018-03-27T10:57:16.365Z,33.20
2018-03-27T10:59:43.988Z,35.10
2018-03-27T11:02:11.645Z,33.50
2018-03-27T11:04:39.442Z,37.97
2018-03-27T11:07:06.950Z,35.30
2018-03-27T11:09:34.946Z,34.20
2018-03-27T11:12:02.448Z,34.17
2018-03-27T11:14:30.106Z,31.90
2018-03-27T11:16:57.753Z,25.00
2018-03-27T11:19:25.320Z,26.53
2018-03-27T11:21:52.814Z,29.47
2018-03-27T11:24:20.311Z,24.03
2018-03-27T11:26:47.800Z,24.93
2018-03-27T11:29:15.472Z,33.63
2018-03-27T11:31:43.090Z,22.30
2018-03-27T11:34:10.582Z,19.30
2018-03-27T11:36:38.068Z,18.80
2018-03-27T11:39:05.854Z,23.60
2018-03-27T11:41:33.413Z,24.27
2018-03-27T11:44:00.900Z,19.97
2018-03-27T11:46:28.404Z,25.50
2018-03-27T11:48:56.159Z,24.50
2018-03-27T11:51:23.657Z,20.00
2018-03-27T11:53:51.212Z,25.77
2018-03-27T11:56:18.790Z,28.40
2018-03-27T11:58:46.286Z,23.70
2018-03-27T12:01:13.809Z,21.10
2018-03-27T12:03:41.395Z,22.07
2018-03-27T12:06:08.886Z,19.63
2018-03-27T12:08:36.378Z,19.20
2018-03-27T12:11:03.958Z,19.40
2018-03-27T12:13:31.496Z,17.63
2018-03-27T12:15:59.021Z,20.13
2018-03-27T12:18:26.517Z,18.27
2018-03-27T12:20:54.029Z,17.07
2018-03-27T12:23:21.536Z,17.90
2018-03-27T12:25:49.043Z,14.97
2018-03-27T12:28:16.542Z,19.77
2018-03-27T12:30:44.108Z,17.23
2018-03-27T12:33:11.613Z,19.40
2018-03-27T12:35:39.158Z,19.00
2018-03-27T12:38:06.693Z,18.53
2018-03-27T12:40:34.204Z,21.23
2018-03-27T12:43:01.729Z,16.93
2018-03-27T12:45:29.286Z,20.13
2018-03-27T12:47:56.778Z,20.00
2018-03-27T12:50:24.261Z,19.27
2018-03-27T12:52:51.805Z,22.23
2018-03-27T12:55:19.525Z,19.73
2018-03-27T12:57:47.033Z,21.93
2018-03-27T13:00:14.531Z,24.93
2018-03-27T13:02:42.044Z,28.73
2018-03-27T13:05:09.534Z,23.77
2018-03-27T13:07:37.043Z,27.80
2018-03-27T13:10:04.575Z,28.33
2018-03-27T13:12:32.074Z,25.80
2018-03-27T13:14:59.608Z,24.10
2018-03-27T13:17:27.861Z,26.00
2018-03-27T13:19:55.352Z,25.07
2018-03-27T13:22:22.902Z,19.97
2018-03-27T13:24:50.905Z,22.87
2018-03-27T13:27:18.396Z,23.20
2018-03-27T13:29:45.909Z,18.63
2018-03-27T13:32:13.511Z,21.67
2018-03-27T13:34:41.038Z,21.77
2018-03-27T13:37:08.537Z,20.27
2018-03-27T13:39:36.048Z,20.33
2018-03-27T13:42:03.582Z,18.57
2018-03-27T13:44:31.089Z,17.00
2018-03-27T13:46:58.587Z,19.37
2018-03-27T13:49:26.177Z,21.60
2018-03-27T13:51:53.665Z,19.67
2018-03-27T13:54:21.180Z,21.63
2018-03-27T13:56:48.699Z,19.17
2018-03-27T13:59:16.202Z,16.67
2018-03-27T14:01:43.710Z,18.37
2018-03-27T14:04:11.216Z,19.23
2018-03-27T14:06:38.966Z,16.83
2018-03-27T14:09:06.623Z,21.67
2018-03-27T14:11:34.421Z,17.47
2018-03-27T14:14:02.121Z,18.40
2018-03-27T14:16:29.629Z,20.67
2018-03-27T14:18:57.137Z,20.40
2018-03-27T14:21:24.674Z,21.93
2018-03-27T14:23:52.370Z,18.70
2018-03-27T14:26:20.144Z,19.77
2018-03-27T14:28:47.801Z,16.90
2018-03-27T14:31:15.497Z,13.37
2018-03-27T14:33:43.163Z,12.23
2018-03-27T14:36:10.702Z,12.50
2018-03-27T14:38:38.193Z,12.87
2018-03-27T14:41:05.707Z,11.80
2018-03-27T14:43:33.220Z,11.77
2018-03-27T14:46:00.702Z,16.63
2018-03-27T14:48:28.206Z,13.93
2018-03-27T14:50:55.695Z,12.63
2018-03-27T14:53:23.290Z,14.90
2018-03-27T14:55:50.830Z,12.83
2018-03-27T14:58:18.334Z,10.60
2018-03-27T15:00:45.846Z,14.50
2018-03-27T15:03:13.325Z,14.33
2018-03-27T15:05:40.820Z,14.17
2018-03-27T15:08:08.322Z,13.93
2018-03-27T15:10:35.824Z,15.77
2018-03-27T15:13:03.332Z,16.67
2018-03-27T15:15:30.834Z,15.20
2018-03-27T15:17:58.341Z,16.90
2018-03-27T15:20:25.833Z,17.30
2018-03-27T15:22:53.327Z,40.57
2018-03-27T15:25:20.904Z,15.47
2018-03-27T15:27:48.426Z,15.43
2018-03-27T15:30:15.930Z,16.83
2018-03-27T15:32:43.409Z,15.40
2018-03-27T15:35:10.978Z,14.50
2018-03-27T15:37:38.732Z,13.27
2018-03-27T15:40:06.265Z,15.47
2018-03-27T15:42:33.789Z,18.07
2018-03-27T15:45:01.286Z,19.97
2018-03-27T15:47:28.832Z,17.07
2018-03-27T15:49:56.336Z,18.43
2018-03-27T15:52:23.934Z,19.57
2018-03-27T15:54:51.606Z,21.67
2018-03-27T15:57:19.157Z,17.67
2018-03-27T15:59:46.847Z,18.90
2018-03-27T16:02:14.915Z,17.23
2018-03-27T16:04:42.440Z,18.37
2018-03-27T16:07:09.929Z,23.90
2018-03-27T16:09:37.461Z,19.43
2018-03-27T16:12:04.991Z,19.83
2018-03-27T16:14:32.481Z,21.47
2018-03-27T16:16:59.981Z,21.87
2018-03-27T16:19:27.486Z,17.73
2018-03-27T16:21:54.978Z,16.63
2018-03-27T16:24:22.536Z,17.33
2018-03-27T16:26:50.450Z,22.90
2018-03-27T16:29:18.300Z,21.43
2018-03-27T16:31:46.321Z,21.50
2018-03-27T16:34:14.293Z,17.53
2018-03-27T16:36:42.582Z,21.77
2018-03-27T16:39:10.975Z,21.00
2018-03-27T16:41:39.717Z,18.10
2018-03-27T16:44:08.551Z,19.67
2018-03-27T16:46:37.379Z,18.30
2018-03-27T16:49:06.406Z,22.60
2018-03-27T16:51:35.939Z,23.10
2018-03-27T16:54:04.662Z,23.63
2018-03-27T16:56:33.507Z,25.40
2018-03-27T16:59:02.046Z,22.80
2018-03-27T17:01:30.778Z,25.77
2018-03-27T17:03:59.308Z,20.27
2018-03-27T17:06:27.753Z,23.77
2018-03-27T17:08:56.676Z,23.90
2018-03-27T17:11:25.708Z,18.40
2018-03-27T17:13:54.545Z,19.33
2018-03-27T17:16:22.406Z,21.07
2018-03-27T17:18:50.314Z,22.37
2018-03-27T17:21:19.470Z,20.60
2018-03-27T17:23:48.310Z,23.03
2018-03-27T17:26:16.846Z,24.73
2018-03-27T17:28:45.771Z,24.07
2018-03-27T17:31:14.413Z,23.87
2018-03-27T17:33:43.247Z,24.73
2018-03-27T17:36:12.668Z,19.83
2018-03-27T17:38:40.712Z,23.83
2018-03-27T17:41:09.565Z,24.53
2018-03-27T17:43:38.574Z,27.37
2018-03-27T17:46:07.412Z,23.07
2018-03-27T17:48:36.044Z,22.83
2018-03-27T17:51:04.882Z,26.47
2018-03-27T17:53:32.729Z,23.73
2018-03-27T17:56:00.573Z,26.63
2018-03-27T17:58:29.412Z,31.87
2018-03-27T18:00:57.308Z,23.23
2018-03-27T18:03:26.697Z,27.70
2018-03-27T18:05:55.524Z,27.50
2018-03-27T18:08:24.562Z,25.47
2018-03-27T18:10:53.388Z,27.23
2018-03-27T18:13:21.239Z,26.27
2018-03-27T18:15:49.065Z,25.77
2018-03-27T18:18:16.900Z,24.00
2018-03-27T18:20:44.766Z,24.17
2018-03-27T18:23:13.633Z,24.67
2018-03-27T18:25:42.642Z,41.27
2018-03-27T18:28:11.474Z,37.60
2018-03-27T18:30:40.308Z,33.67
2018-03-27T18:33:09.736Z,33.27
2018-03-27T18:35:38.177Z,34.33
2018-03-27T18:38:06.808Z,30.77
2018-03-27T18:40:35.517Z,31.53
2018-03-27T18:43:04.007Z,25.60
2018-03-27T18:45:32.921Z,32.33
2018-03-27T18:48:01.950Z,29.93
2018-03-27T18:50:31.572Z,28.00
2018-03-27T18:53:00.203Z,29.77
2018-03-27T18:55:29.235Z,35.00
2018-03-27T18:57:57.646Z,30.83
2018-03-27T19:00:26.349Z,28.53
2018-03-27T19:02:55.139Z,25.07
2018-03-27T19:05:24.169Z,28.60
2018-03-27T19:07:52.811Z,29.37
2018-03-27T19:10:21.677Z,28.20
2018-03-27T19:12:50.471Z,25.33
2018-03-27T19:15:19.113Z,27.07
2018-03-27T19:17:47.950Z,28.83
2018-03-27T19:20:17.265Z,25.97
2018-03-27T19:22:46.025Z,27.20
2018-03-27T19:25:14.752Z,31.03
2018-03-27T19:27:43.470Z,25.47
2018-03-27T19:30:12.308Z,27.60
2018-03-27T19:32:40.846Z,26.87
2018-03-27T19:35:09.970Z,26.13
2018-03-27T19:37:38.813Z,25.80
2018-03-27T19:40:07.456Z,28.63
2018-03-27T19:42:36.867Z,28.00
2018-03-27T19:45:05.893Z,29.77
2018-03-27T19:47:34.922Z,33.27
2018-03-27T19:50:03.963Z,27.23
2018-03-27T19:52:32.602Z,22.37
2018-03-27T19:55:01.337Z,28.70
2018-03-27T19:57:31.237Z,25.93
2018-03-27T20:00:00.087Z,22.63
2018-03-27T20:02:28.711Z,27.23
2018-03-27T20:04:57.359Z,23.30
2018-03-27T20:07:26.573Z,26.40
2018-03-27T20:09:55.405Z,23.20
2018-03-27T20:12:24.246Z,28.03
2018-03-27T20:14:52.783Z,28.67
2018-03-27T20:17:21.233Z,25.87
2018-03-27T20:19:50.146Z,22.17
2018-03-27T20:22:18.989Z,27.43
2018-03-27T20:24:47.823Z,23.13
2018-03-27T20:27:16.650Z,26.97
2018-03-27T20:29:45.502Z,24.63
2018-03-27T20:32:14.517Z,25.10
2018-03-27T20:34:43.348Z,27.27
2018-03-27T20:37:13.552Z,27.47
2018-03-27T20:39:42.581Z,27.80
2018-03-27T20:42:11.420Z,26.70
2018-03-27T20:44:39.606Z,24.80
2018-03-27T20:47:08.892Z,25.60
2018-03-27T20:49:37.914Z,26.43
2018-03-27T20:52:06.958Z,30.73
2018-03-27T20:54:35.786Z,27.93
2018-03-27T20:57:04.419Z,28.27
2018-03-27T20:59:33.447Z,25.33
2018-03-27T21:02:02.292Z,29.13
2018-03-27T21:04:31.320Z,28.70
2018-03-27T21:07:00.336Z,29.87
2018-03-27T21:09:29.171Z,31.97
2018-03-27T21:11:58.395Z,28.90
2018-03-27T21:14:27.232Z,29.20
2018-03-27T21:16:56.063Z,27.57
2018-03-27T21:19:24.901Z,26.73
2018-03-27T21:21:53.733Z,33.20
2018-03-27T21:24:22.758Z,28.77
2018-03-27T21:26:51.599Z,26.57
2018-03-27T21:29:20.231Z,31.17
2018-03-27T21:31:48.387Z,26.73
2018-03-27T21:34:16.518Z,30.63
2018-03-27T21:36:44.277Z,26.93
2018-03-27T21:39:12.021Z,30.93
2018-03-27T21:41:39.721Z,29.60
2018-03-27T21:44:07.328Z,32.13
2018-03-27T21:46:35.048Z,28.43
2018-03-27T21:49:02.540Z,28.37
2018-03-27T21:51:30.073Z,30.40
2018-03-27T21:53:57.793Z,31.30
2018-03-27T21:56:25.289Z,24.10
2018-03-27T21:58:52.785Z,31.37
2018-03-27T22:01:20.356Z,29.90
2018-03-27T22:03:47.907Z,30.27
2018-03-27T22:06:30.939Z,24.10
2018-03-27T22:08:58.660Z,26.47
2018-03-27T22:11:26.176Z,39.77
2018-03-27T22:13:53.672Z,28.13
2018-03-27T22:16:21.418Z,22.50
2018-03-27T22:18:49.073Z,21.30
2018-03-27T22:21:17.073Z,23.43
2018-03-27T22:23:44.904Z,26.27
2018-03-27T22:26:12.575Z,22.30
2018-03-27T22:28:40.278Z,20.50
2018-03-27T22:31:07.929Z,24.73
2018-03-27T22:33:35.584Z,22.37
2018-03-27T22:36:03.104Z,22.97
2018-03-27T22:38:31.040Z,21.53
2018-03-27T22:40:58.889Z,20.33
2018-03-27T22:43:26.595Z,25.10
2018-03-27T22:45:54.240Z,19.37
2018-03-27T22:48:21.898Z,24.40
2018-03-27T22:50:49.550Z,21.83
2018-03-27T22:53:17.158Z,24.43
2018-03-27T22:55:44.697Z,17.77
2018-03-27T22:58:12.184Z,21.07
2018-03-27T23:00:40.132Z,24.03
2018-03-27T23:03:07.772Z,23.13
2018-03-27T23:05:35.261Z,22.10
2018-03-27T23:08:02.880Z,17.70
2018-03-27T23:10:30.370Z,20.30
2018-03-27T23:12:58.234Z,20.10
2018-03-27T23:15:25.726Z,25.23
2018-03-27T23:17:53.218Z,18.67
2018-03-27T23:20:20.761Z,19.20
2018-03-27T23:22:48.250Z,24.50
2018-03-27T23:25:15.774Z,25.40
2018-03-27T23:27:43.325Z,24.80
2018-03-27T23:30:10.822Z,21.90
2018-03-27T23:32:38.333Z,21.47
2018-03-27T23:35:05.924Z,21.23
2018-03-27T23:37:33.422Z,21.17
2018-03-27T23:40:01.049Z,22.57
2018-03-27T23:42:28.710Z,25.30
2018-03-27T23:44:56.352Z,23.23
2018-03-27T23:47:23.867Z,22.83
2018-03-27T23:49:51.665Z,18.33
2018-03-27T23:52:19.197Z,21.27
2018-03-27T23:54:46.925Z,20.83
2018-03-27T23:57:14.414Z,21.87
2018-03-27T23:59:41.956Z,26.63
